Time;durP1;ratioP1;P1;durP2;ratioP2;P2;SDS_P1;SDS_P2;PMS_P1;PMS_P2;Temp;Humidity;BMP_temperature;BMP_pressure;BME280_temperature;BME280_humidity;BME280_pressure;Samples;Min_cycle;Max_cycle;Signal;HPM_P1;HPM_P2
2022/01/02 00:01:35;;;;;;;11.32;3.80;;;;;;;;;;10259237;28;20035;-73
2022/01/02 00:06:42;;;;;;;12.10;3.97;;;;;;;;;;10249184;28;20046;-72
2022/01/02 00:11:45;;;;;;;9.47;3.90;;;;;;;;;;10239012;28;20530;-74
2022/01/02 00:16:51;;;;;;;8.55;3.78;;;;;;;;;;10228232;28;20039;-74
2022/01/02 00:21:55;;;;;;;11.02;3.63;;;;;;;;;;10245011;28;20030;-75
2022/01/02 00:26:59;;;;;;;11.53;3.77;;;;;;;;;;10234139;28;20035;-75
2022/01/02 00:32:02;;;;;;;;;;;;;;;;;;10236909;28;20050;-74
2022/01/02 00:37:07;;;;;;;9.20;3.30;;;;;;;;;;10227953;28;19922;-74
2022/01/02 00:42:11;;;;;;;9.77;3.42;;;;;;;;;;10253932;28;20074;-74
2022/01/02 00:47:18;;;;;;;7.05;3.05;;;;;;;;;;10252383;28;20035;-75
2022/01/02 00:52:23;;;;;;;8.63;2.87;;;;;;;;;;10268184;28;20045;-74
2022/01/02 00:57:30;;;;;;;8.40;2.90;;;;;;;;;;10243490;28;20035;-76
2022/01/02 01:02:35;;;;;;;9.33;2.87;;;;;;;;;;10234121;28;20514;-74
2022/01/02 01:07:40;;;;;;;7.07;2.83;;;;;;;;;;10240261;28;20051;-74
2022/01/02 01:12:44;;;;;;;6.13;2.80;;;;;;;;;;10238059;28;20526;-74
2022/01/02 01:17:48;;;;;;;8.40;3.33;;;;;;;;;;10233009;28;20575;-75
2022/01/02 01:22:52;;;;;;;5.07;2.40;;;;;;;;;;10243413;28;20043;-74
2022/01/02 01:27:55;;;;;;;6.83;2.33;;;;;;;;;;10232832;28;20141;-75
2022/01/02 01:32:58;;;;;;;5.03;2.17;;;;;;;;;;10231490;28;20146;-74
2022/01/02 01:38:03;;;;;;;6.23;2.63;;;;;;;;;;10249487;28;22053;-75
2022/01/02 01:43:09;;;;;;;4.83;2.30;;;;;;;;;;10256252;28;20062;-75
2022/01/02 01:48:12;;;;;;;4.13;2.00;;;;;;;;;;10240503;28;20171;-74
2022/01/02 01:53:17;;;;;;;5.20;2.17;;;;;;;;;;10246032;28;20042;-74
2022/01/02 01:58:20;;;;;;;4.50;1.63;;;;;;;;;;10234962;28;20038;-73
2022/01/02 02:03:23;;;;;;;3.17;1.70;;;;;;;;;;10240110;28;20498;-74
2022/01/02 02:08:28;;;;;;;2.40;0.68;;;;;;;;;;10270299;23;20167;-79
2022/01/02 02:13:31;;;;;;;4.33;1.73;;;;;;;;;;10260559;28;20068;-80
2022/01/02 02:18:35;;;;;;;5.10;1.80;;;;;;;;;;10267739;28;20070;-80
2022/01/02 02:23:42;;;;;;;1.77;0.95;;;;;;;;;;10284859;28;20045;-81
2022/01/02 02:28:46;;;;;;;4.17;1.63;;;;;;;;;;10276216;28;20043;-80
2022/01/02 02:33:50;;;;;;;4.43;1.87;;;;;;;;;;10282147;28;20042;-81
2022/01/02 02:38:54;;;;;;;2.90;1.57;;;;;;;;;;10272558;28;20036;-79
2022/01/02 02:44:03;;;;;;;2.80;1.55;;;;;;;;;;10262980;28;20329;-81
2022/01/02 02:49:06;;;;;;;3.00;1.45;;;;;;;;;;10293887;28;20082;-79
2022/01/02 02:54:11;;;;;;;2.78;1.27;;;;;;;;;;10291117;28;20062;-78
2022/01/02 02:59:14;;;;;;;3.75;1.38;;;;;;;;;;10286751;28;20107;-80
2022/01/02 03:04:18;;;;;;;2.43;1.10;;;;;;;;;;10286957;28;20314;-79
2022/01/02 03:09:37;;;;;;;3.27;1.30;;;;;;;;;;10288120;28;20043;-78
2022/01/02 03:14:42;;;;;;;1.88;0.82;;;;;;;;;;10281283;28;20059;-78
2022/01/02 03:19:45;;;;;;;0.97;0.77;;;;;;;;;;10293788;28;20081;-78
2022/01/02 03:24:52;;;;;;;3.20;1.25;;;;;;;;;;10296736;28;20027;-78
2022/01/02 03:29:55;;;;;;;1.95;1.05;;;;;;;;;;10292729;28;20062;-75
2022/01/02 03:34:59;;;;;;;2.03;1.25;;;;;;;;;;10269286;28;20134;-80
2022/01/02 03:40:06;;;;;;;2.78;1.30;;;;;;;;;;10278858;28;20550;-78
2022/01/02 03:45:09;;;;;;;1.97;0.80;;;;;;;;;;10282699;28;20099;-79
2022/01/02 03:50:12;;;;;;;3.65;1.33;;;;;;;;;;10283523;28;20518;-78
2022/01/02 03:55:17;;;;;;;3.10;1.30;;;;;;;;;;10287226;28;20040;-77
2022/01/02 04:00:20;;;;;;;2.25;1.48;;;;;;;;;;10279498;28;20421;-78
2022/01/02 04:05:23;;;;;;;2.63;1.20;;;;;;;;;;10269194;28;20050;-80
2022/01/02 04:10:27;;;;;;;3.10;1.30;;;;;;;;;;10286553;28;20043;-80
2022/01/02 04:15:30;;;;;;;3.00;1.27;;;;;;;;;;10283318;28;20035;-79
2022/01/02 04:20:33;;;;;;;3.27;1.40;;;;;;;;;;10277907;28;20064;-78
2022/01/02 04:25:37;;;;;;;4.03;1.77;;;;;;;;;;10268693;28;20455;-77
2022/01/02 04:30:40;;;;;;;0.95;0.60;;;;;;;;;;10289643;28;20058;-78
2022/01/02 04:35:43;;;;;;;4.50;1.20;;;;;;;;;;10291045;28;20049;-78
2022/01/02 04:40:48;;;;;;;3.07;1.17;;;;;;;;;;10273827;28;20042;-80
2022/01/02 04:45:51;;;;;;;1.37;1.13;;;;;;;;;;10281578;28;20027;-76
2022/01/02 04:50:54;;;;;;;1.07;0.83;;;;;;;;;;10285207;28;20102;-76
2022/01/02 04:55:58;;;;;;;3.07;1.50;;;;;;;;;;10279922;28;20039;-78
2022/01/02 05:01:01;;;;;;;;;;;;;;;;;;10282477;28;20142;-78
2022/01/02 05:06:04;;;;;;;1.70;0.90;;;;;;;;;;10290745;28;20323;-79
2022/01/02 05:11:08;;;;;;;0.97;0.73;;;;;;;;;;10271033;28;20039;-78
2022/01/02 05:16:11;;;;;;;;;;;;;;;;;;10277614;28;20078;-76
2022/01/02 05:21:14;;;;;;;3.47;1.40;;;;;;;;;;10286980;28;19952;-76
2022/01/02 05:26:18;;;;;;;3.23;1.03;;;;;;;;;;10280209;28;20042;-76
2022/01/02 05:31:21;;;;;;;;;;;;;;;;;;10280324;28;20043;-77
2022/01/02 05:36:23;;;;;;;2.90;1.27;;;;;;;;;;10279545;28;19985;-77
2022/01/02 05:41:29;;;;;;;2.87;1.20;;;;;;;;;;10267187;28;20465;-80
2022/01/02 05:46:32;;;;;;;1.83;1.10;;;;;;;;;;10270682;28;20121;-78
2022/01/02 05:51:35;;;;;;;4.37;0.60;;;;;;;;;;10273441;28;20042;-80
2022/01/02 05:56:39;;;;;;;2.43;1.13;;;;;;;;;;10271138;28;20032;-79
2022/01/02 06:01:42;;;;;;;1.17;0.85;;;;;;;;;;10273941;28;20038;-76
2022/01/02 06:06:45;;;;;;;1.93;0.80;;;;;;;;;;10268742;28;20043;-77
2022/01/02 06:11:49;;;;;;;1.90;1.10;;;;;;;;;;10264631;28;20077;-77
2022/01/02 06:16:52;;;;;;;2.53;1.17;;;;;;;;;;10261296;28;20387;-78
2022/01/02 06:21:55;;;;;;;4.80;1.00;;;;;;;;;;10270740;28;20081;-77
2022/01/02 06:26:59;;;;;;;1.70;0.70;;;;;;;;;;10268411;28;20042;-78
2022/01/02 06:32:04;;;;;;;0.97;0.60;;;;;;;;;;10265039;28;20042;-76
2022/01/02 06:37:07;;;;;;;3.87;1.20;;;;;;;;;;10266591;28;20405;-78
2022/01/02 06:42:11;;;;;;;1.93;0.87;;;;;;;;;;10256451;28;20507;-76
2022/01/02 06:47:14;;;;;;;2.93;1.03;;;;;;;;;;10259557;28;20445;-79
2022/01/02 06:52:17;;;;;;;1.90;0.90;;;;;;;;;;10265574;28;20047;-78
2022/01/02 06:57:22;;;;;;;2.30;0.57;;;;;;;;;;10275448;28;20487;-77
2022/01/02 07:02:25;;;;;;;2.57;1.30;;;;;;;;;;10261701;28;20068;-79
2022/01/02 07:07:28;;;;;;;2.70;1.20;;;;;;;;;;10266252;28;20083;-77
2022/01/02 07:12:32;;;;;;;2.17;1.03;;;;;;;;;;10270648;28;20070;-80
2022/01/02 07:17:35;;;;;;;;;;;;;;;;;;10269173;28;20039;-78
2022/01/02 07:22:40;;;;;;;3.33;1.50;;;;;;;;;;10266505;28;19922;-80
2022/01/02 07:27:44;;;;;;;2.63;1.20;;;;;;;;;;10254366;28;20031;-78
2022/01/02 07:32:48;;;;;;;3.40;1.38;;;;;;;;;;10266248;28;20049;-79
2022/01/02 07:37:50;;;;;;;4.10;1.40;;;;;;;;;;10277426;28;20102;-80
2022/01/02 07:42:55;;;;;;;2.42;1.02;;;;;;;;;;10272953;28;20063;-77
2022/01/02 07:47:57;;;;;;;;;;;;;;;;;;10277572;28;20393;-77
2022/01/02 07:53:04;;;;;;;2.25;1.48;;;;;;;;;;10285914;28;19922;-77
2022/01/02 07:58:08;;;;;;;1.90;1.23;;;;;;;;;;10281550;28;20768;-78
2022/01/02 08:03:11;;;;;;;2.45;1.30;;;;;;;;;;10273778;28;20046;-79
2022/01/02 08:08:15;;;;;;;3.00;1.30;;;;;;;;;;10277946;28;20070;-81
2022/01/02 08:13:19;;;;;;;3.73;1.10;;;;;;;;;;10280825;23;20039;-72
2022/01/02 08:18:23;;;;;;;0.93;0.57;;;;;;;;;;10241840;28;20082;-70
2022/01/02 08:23:25;;;;;;;1.60;1.10;;;;;;;;;;10264121;28;20055;-71
2022/01/02 08:28:50;;;;;;;2.65;1.02;;;;;;;;;;10240867;28;20071;-69
2022/01/02 08:33:52;;;;;;;1.40;0.95;;;;;;;;;;10236099;29;20121;-71
2022/01/02 08:38:55;;;;;;;3.05;1.20;;;;;;;;;;10241192;28;20082;-72
2022/01/02 08:43:59;;;;;;;1.83;1.02;;;;;;;;;;10259238;28;20648;-71
2022/01/02 08:49:02;;;;;;;4.30;1.20;;;;;;;;;;10243228;28;20352;-69
2022/01/02 08:54:06;;;;;;;2.67;1.20;;;;;;;;;;10238509;28;20039;-71
2022/01/02 08:59:10;;;;;;;3.37;1.20;;;;;;;;;;10241750;28;20176;-71
2022/01/02 09:04:13;;;;;;;2.28;1.27;;;;;;;;;;10240558;28;20387;-70
2022/01/02 09:09:17;;;;;;;2.33;1.25;;;;;;;;;;10256379;23;20566;-73
2022/01/02 09:14:22;;;;;;;1.48;1.20;;;;;;;;;;10233595;28;20292;-73
2022/01/02 09:19:25;;;;;;;2.05;1.35;;;;;;;;;;10227454;29;20122;-73
2022/01/02 09:24:28;;;;;;;;;;;;;;;;;;10224768;29;20094;-73
2022/01/02 09:29:33;;;;;;;1.00;0.82;;;;;;;;;;10239196;28;20486;-73
2022/01/02 09:34:36;;;;;;;2.03;1.30;;;;;;;;;;10239026;28;20046;-73
2022/01/02 09:39:39;;;;;;;1.98;1.40;;;;;;;;;;10232043;28;20518;-72
2022/01/02 09:44:48;;;;;;;1.77;1.45;;;;;;;;;;10221782;28;20051;-73
2022/01/02 09:49:51;;;;;;;1.65;1.30;;;;;;;;;;10231631;28;20061;-72
2022/01/02 09:54:54;;;;;;;3.35;1.60;;;;;;;;;;10222398;28;20500;-72
2022/01/02 09:59:59;;;;;;;1.95;1.60;;;;;;;;;;10222336;28;20031;-72
2022/01/02 10:05:03;;;;;;;2.08;1.55;;;;;;;;;;10247239;28;20039;-72
2022/01/02 10:10:10;;;;;;;1.95;1.63;;;;;;;;;;10222916;28;20077;-72
2022/01/02 10:15:18;;;;;;;3.42;1.48;;;;;;;;;;10228730;28;20518;-73
2022/01/02 10:20:22;;;;;;;2.25;1.48;;;;;;;;;;10222176;28;20400;-73
2022/01/02 10:25:36;;;;;;;2.47;1.50;;;;;;;;;;10222664;28;20127;-71
2022/01/02 10:30:45;;;;;;;3.72;1.60;;;;;;;;;;10219719;28;20385;-73
2022/01/02 10:35:55;;;;;;;2.20;1.50;;;;;;;;;;10237068;28;20036;-71
2022/01/02 10:40:59;;;;;;;1.67;1.30;;;;;;;;;;10226316;28;20551;-73
2022/01/02 10:46:08;;;;;;;1.58;1.48;;;;;;;;;;10223421;28;20044;-72
2022/01/02 10:51:14;;;;;;;2.95;1.83;;;;;;;;;;10223173;28;20613;-70
2022/01/02 10:56:18;;;;;;;2.08;1.88;;;;;;;;;;10231263;28;20040;-71
2022/01/02 11:01:22;;;;;;;2.15;1.95;;;;;;;;;;10228334;28;20031;-72
2022/01/02 11:06:29;;;;;;;2.20;1.65;;;;;;;;;;10228302;28;20178;-72
2022/01/02 11:11:33;;;;;;;1.95;1.63;;;;;;;;;;10226283;28;20039;-72
2022/01/02 11:16:38;;;;;;;1.33;1.20;;;;;;;;;;10222586;28;20080;-71
2022/01/02 11:21:44;;;;;;;2.28;1.40;;;;;;;;;;10228206;28;20032;-72
2022/01/02 11:26:49;;;;;;;3.50;1.83;;;;;;;;;;10217331;28;20071;-72
2022/01/02 11:31:54;;;;;;;1.40;1.30;;;;;;;;;;10222501;28;20585;-73
2022/01/02 11:37:12;;;;;;;3.05;2.13;;;;;;;;;;10218717;28;20054;-72
2022/01/02 11:42:42;;;;;;;2.28;1.52;;;;;;;;;;10220261;28;20114;-73
2022/01/02 11:47:48;;;;;;;1.63;1.52;;;;;;;;;;10222600;28;20039;-76
2022/01/02 11:53:06;;;;;;;1.63;1.38;;;;;;;;;;10222564;28;20130;-72
2022/01/02 11:58:14;;;;;;;1.15;1.00;;;;;;;;;;10216826;28;20126;-72
2022/01/02 12:03:36;;;;;;;1.42;1.00;;;;;;;;;;10219187;29;20102;-72
2022/01/02 12:08:40;;;;;;;0.67;0.43;;;;;;;;;;10208271;28;20107;-73
2022/01/02 12:13:44;;;;;;;1.67;1.20;;;;;;;;;;10226536;29;20050;-72
2022/01/02 12:18:57;;;;;;;0.60;0.60;;;;;;;;;;10228294;28;20411;-73
2022/01/02 12:24:04;;;;;;;1.20;1.10;;;;;;;;;;10251403;28;20095;-72
2022/01/02 12:29:12;;;;;;;1.63;0.90;;;;;;;;;;10227709;28;20035;-71
2022/01/02 12:34:17;;;;;;;1.02;0.55;;;;;;;;;;10237441;28;20122;-73
2022/01/02 12:39:27;;;;;;;0.63;0.55;;;;;;;;;;10225710;28;20035;-73
2022/01/02 12:44:31;;;;;;;1.25;1.00;;;;;;;;;;10244494;28;20040;-73
2022/01/02 12:49:36;;;;;;;2.92;0.50;;;;;;;;;;10226215;28;20094;-73
2022/01/02 12:54:43;;;;;;;0.40;0.30;;;;;;;;;;10229365;28;20518;-73
2022/01/02 12:59:46;;;;;;;0.52;0.40;;;;;;;;;;10236754;28;20047;-74
2022/01/02 13:04:50;;;;;;;0.70;0.47;;;;;;;;;;10226961;28;20054;-72
2022/01/02 13:09:55;;;;;;;1.15;0.60;;;;;;;;;;10225165;29;20040;-74
2022/01/02 13:14:59;;;;;;;0.93;0.60;;;;;;;;;;10228333;29;20047;-73
2022/01/02 13:20:05;;;;;;;0.63;0.50;;;;;;;;;;10221227;28;20304;-72
2022/01/02 13:25:12;;;;;;;0.88;0.50;;;;;;;;;;10227804;28;20461;-73
2022/01/02 13:30:17;;;;;;;0.22;0.22;;;;;;;;;;10230345;29;20067;-74
2022/01/02 13:35:20;;;;;;;0.65;0.65;;;;;;;;;;10225563;28;20042;-73
2022/01/02 13:40:23;;;;;;;;;;;;;;;;;;10232982;28;20095;-72
2022/01/02 13:45:28;;;;;;;1.02;0.50;;;;;;;;;;10234298;28;20295;-74
2022/01/02 13:50:36;;;;;;;0.80;0.40;;;;;;;;;;10219603;28;20122;-71
2022/01/02 13:55:40;;;;;;;1.35;0.70;;;;;;;;;;10228445;29;20047;-73
2022/01/02 14:00:46;;;;;;;0.40;0.40;;;;;;;;;;10220298;28;20035;-71
2022/01/02 14:05:50;;;;;;;1.08;0.52;;;;;;;;;;10224820;29;20655;-73
2022/01/02 14:11:04;;;;;;;1.23;0.60;;;;;;;;;;10240962;28;20039;-74
2022/01/02 14:16:09;;;;;;;0.60;0.52;;;;;;;;;;10252647;23;20077;-74
2022/01/02 14:21:12;;;;;;;0.50;0.43;;;;;;;;;;10251446;28;20043;-76
2022/01/02 14:26:16;;;;;;;1.05;0.60;;;;;;;;;;10218848;28;20051;-75
2022/01/02 14:31:20;;;;;;;0.93;0.40;;;;;;;;;;10217281;28;20044;-75
2022/01/02 14:36:26;;;;;;;1.55;0.73;;;;;;;;;;10218838;28;20047;-75
2022/01/02 14:41:29;;;;;;;2.42;0.70;;;;;;;;;;10243846;28;20485;-75
2022/01/02 14:46:34;;;;;;;0.90;0.77;;;;;;;;;;10256608;28;20043;-77
2022/01/02 14:51:38;;;;;;;1.73;0.95;;;;;;;;;;10251802;28;20332;-75
2022/01/02 14:56:41;;;;;;;1.40;1.10;;;;;;;;;;10237082;28;20043;-76
2022/01/02 15:01:46;;;;;;;0.85;0.75;;;;;;;;;;10225398;28;20055;-77
2022/01/02 15:06:51;;;;;;;2.15;1.10;;;;;;;;;;10247797;28;20043;-76
2022/01/02 15:12:03;;;;;;;0.80;0.47;;;;;;;;;;10227818;28;20520;-77
2022/01/02 15:17:08;;;;;;;1.83;0.90;;;;;;;;;;10237650;28;20044;-77
2022/01/02 15:22:12;;;;;;;1.30;1.08;;;;;;;;;;10219073;28;20641;-79
2022/01/02 15:27:15;;;;;;;1.60;0.97;;;;;;;;;;10247959;28;20043;-79
2022/01/02 15:32:20;;;;;;;3.53;1.15;;;;;;;;;;10254296;28;20794;-79
2022/01/02 15:37:23;;;;;;;0.77;0.77;;;;;;;;;;10254922;28;20027;-78
2022/01/02 15:42:26;;;;;;;1.75;0.90;;;;;;;;;;10282977;28;20035;-76
2022/01/02 15:47:30;;;;;;;1.63;0.90;;;;;;;;;;10255086;28;20061;-78
2022/01/02 15:52:33;;;;;;;3.30;0.95;;;;;;;;;;10252615;28;20122;-78
2022/01/02 15:57:37;;;;;;;5.80;1.42;;;;;;;;;;10244753;28;20539;-77
2022/01/02 16:02:42;;;;;;;2.70;1.13;;;;;;;;;;10232886;28;20051;-77
2022/01/02 16:07:45;;;;;;;2.85;1.02;;;;;;;;;;10234063;28;20027;-77
2022/01/02 16:12:48;;;;;;;6.13;1.77;;;;;;;;;;10229406;28;20035;-76
2022/01/02 16:17:53;;;;;;;4.87;1.60;;;;;;;;;;10243377;28;20395;-76
2022/01/02 16:22:56;;;;;;;4.72;1.40;;;;;;;;;;10279168;28;20051;-75
2022/01/02 16:27:59;;;;;;;6.00;2.40;;;;;;;;;;10239936;28;20031;-77
2022/01/02 16:33:04;;;;;;;4.53;1.77;;;;;;;;;;10254717;28;20039;-78
2022/01/02 16:38:07;;;;;;;3.65;1.27;;;;;;;;;;10251377;28;20038;-79
2022/01/02 16:43:10;;;;;;;1.73;0.83;;;;;;;;;;10252505;28;20070;-77
2022/01/02 16:48:15;;;;;;;4.65;1.50;;;;;;;;;;10237580;28;20296;-73
2022/01/02 16:53:18;;;;;;;2.75;1.25;;;;;;;;;;10242886;28;20043;-76
2022/01/02 16:58:21;;;;;;;4.10;1.40;;;;;;;;;;10252613;28;20050;-78
2022/01/02 17:03:26;;;;;;;4.00;1.53;;;;;;;;;;10274963;28;20034;-78
2022/01/02 17:08:29;;;;;;;1.48;1.23;;;;;;;;;;10245569;28;20703;-78
2022/01/02 17:13:32;;;;;;;2.53;1.15;;;;;;;;;;10248731;28;20043;-78
2022/01/02 17:18:37;;;;;;;5.10;1.80;;;;;;;;;;10259649;28;20046;-77
2022/01/02 17:23:41;;;;;;;2.03;1.13;;;;;;;;;;10268697;28;20106;-78
2022/01/02 17:28:44;;;;;;;6.60;1.40;;;;;;;;;;10242074;28;20043;-78
2022/01/02 17:33:50;;;;;;;2.67;1.30;;;;;;;;;;10259894;28;20111;-77
2022/01/02 17:38:53;;;;;;;2.97;0.80;;;;;;;;;;10250217;28;20917;-76
2022/01/02 17:43:58;;;;;;;2.22;1.30;;;;;;;;;;10265822;28;20048;-77
2022/01/02 17:49:03;;;;;;;2.33;1.40;;;;;;;;;;10258792;28;20031;-78
2022/01/02 17:54:06;;;;;;;3.75;1.00;;;;;;;;;;10251542;28;20066;-76
2022/01/02 17:59:10;;;;;;;1.23;1.00;;;;;;;;;;10269285;28;20062;-74
2022/01/02 18:04:16;;;;;;;3.30;1.30;;;;;;;;;;10280052;28;20050;-76
2022/01/02 18:09:23;;;;;;;2.60;1.05;;;;;;;;;;10252032;28;20031;-78
2022/01/02 18:14:27;;;;;;;8.13;2.58;;;;;;;;;;10273011;28;20032;-77
2022/01/02 18:19:31;;;;;;;3.20;1.27;;;;;;;;;;10285145;28;20067;-77
2022/01/02 18:24:36;;;;;;;3.00;1.40;;;;;;;;;;10267145;28;20081;-76
2022/01/02 18:29:40;;;;;;;3.67;0.98;;;;;;;;;;10248362;28;20038;-77
2022/01/02 18:34:43;;;;;;;;;;;;;;;;;;10256911;28;20031;-78
2022/01/02 18:39:48;;;;;;;1.25;0.70;;;;;;;;;;10256869;28;19930;-77
2022/01/02 18:44:53;;;;;;;2.53;0.70;;;;;;;;;;10244117;28;20047;-74
2022/01/02 18:49:56;;;;;;;1.45;0.65;;;;;;;;;;10253849;28;20217;-76
2022/01/02 18:55:01;;;;;;;2.97;1.07;;;;;;;;;;10266758;28;20042;-76
2022/01/02 19:00:04;;;;;;;2.38;0.75;;;;;;;;;;10258189;28;20054;-78
2022/01/02 19:05:08;;;;;;;1.80;1.02;;;;;;;;;;10256532;28;20051;-76
2022/01/02 19:10:14;;;;;;;1.67;0.90;;;;;;;;;;10247856;28;20517;-76
2022/01/02 19:15:20;;;;;;;1.05;0.65;;;;;;;;;;10242401;28;20050;-79
2022/01/02 19:20:23;;;;;;;2.23;0.60;;;;;;;;;;10269323;28;20055;-76
2022/01/02 19:25:27;;;;;;;2.57;0.80;;;;;;;;;;10261104;28;20114;-78
2022/01/02 19:30:33;;;;;;;1.60;0.73;;;;;;;;;;10251764;28;20251;-77
2022/01/02 19:35:37;;;;;;;2.45;0.75;;;;;;;;;;10269124;28;20039;-75
2022/01/02 19:40:41;;;;;;;2.03;0.95;;;;;;;;;;10254165;28;20036;-76
2022/01/02 19:45:44;;;;;;;1.88;0.90;;;;;;;;;;10256628;28;20138;-76
2022/01/02 19:50:48;;;;;;;6.83;0.97;;;;;;;;;;10260994;28;20262;-76
2022/01/02 19:55:53;;;;;;;2.40;1.17;;;;;;;;;;10275451;28;20291;-76
2022/01/02 20:00:56;;;;;;;1.02;0.55;;;;;;;;;;10236031;28;20035;-76
2022/01/02 20:05:59;;;;;;;4.90;1.67;;;;;;;;;;10258428;28;20464;-80
2022/01/02 20:11:04;;;;;;;2.00;0.80;;;;;;;;;;10267111;28;20030;-77
2022/01/02 20:16:07;;;;;;;4.53;1.52;;;;;;;;;;10239844;28;20118;-71
2022/01/02 20:21:12;;;;;;;2.03;0.83;;;;;;;;;;10242686;28;20524;-78
2022/01/02 20:26:17;;;;;;;1.02;0.70;;;;;;;;;;10252673;28;20570;-80
2022/01/02 20:31:20;;;;;;;1.23;0.70;;;;;;;;;;10240023;28;20039;-78
2022/01/02 20:36:25;;;;;;;1.87;1.00;;;;;;;;;;10271944;28;20249;-77
2022/01/02 20:41:30;;;;;;;1.05;0.88;;;;;;;;;;10242716;23;20314;-72
2022/01/02 20:46:33;;;;;;;3.35;1.10;;;;;;;;;;10216675;29;20117;-72
2022/01/02 20:51:37;;;;;;;1.25;0.90;;;;;;;;;;10221996;28;20035;-72
2022/01/02 20:56:43;;;;;;;2.40;1.00;;;;;;;;;;10222823;28;20055;-74
2022/01/02 21:01:46;;;;;;;1.92;1.00;;;;;;;;;;10224147;29;20031;-70
2022/01/02 21:06:50;;;;;;;1.15;0.70;;;;;;;;;;10234049;29;20051;-71
2022/01/02 21:11:55;;;;;;;2.55;0.75;;;;;;;;;;10232244;28;20043;-71
2022/01/02 21:16:59;;;;;;;2.90;0.93;;;;;;;;;;10226785;28;20186;-71
2022/01/02 21:22:03;;;;;;;3.92;1.60;;;;;;;;;;10230455;28;20126;-73
2022/01/02 21:27:08;;;;;;;1.10;0.75;;;;;;;;;;10234171;29;20039;-72
2022/01/02 21:32:11;;;;;;;1.60;0.95;;;;;;;;;;10234337;28;20055;-74
2022/01/02 21:37:15;;;;;;;1.33;0.73;;;;;;;;;;10226685;29;20103;-74
2022/01/02 21:42:19;;;;;;;2.63;1.43;;;;;;;;;;10215360;28;20032;-73
2022/01/02 21:47:23;;;;;;;2.30;1.30;;;;;;;;;;10218414;28;20560;-70
2022/01/02 21:52:26;;;;;;;1.07;0.77;;;;;;;;;;10218063;28;20074;-71
2022/01/02 21:57:31;;;;;;;1.45;0.70;;;;;;;;;;10218678;28;20040;-70
2022/01/02 22:02:35;;;;;;;1.45;1.02;;;;;;;;;;10237599;28;20432;-73
2022/01/02 22:07:39;;;;;;;2.63;1.08;;;;;;;;;;10231282;28;20035;-72
2022/01/02 22:12:43;;;;;;;5.53;1.67;;;;;;;;;;10224223;28;20057;-73
2022/01/02 22:17:47;;;;;;;2.05;0.95;;;;;;;;;;10228619;28;20035;-73
2022/01/02 22:22:50;;;;;;;2.53;1.10;;;;;;;;;;10218332;28;20054;-72
2022/01/02 22:27:55;;;;;;;2.53;1.40;;;;;;;;;;10223460;29;20051;-72
2022/01/02 22:32:58;;;;;;;3.15;1.02;;;;;;;;;;10225054;28;20059;-73
2022/01/02 22:38:07;;;;;;;2.38;0.88;;;;;;;;;;10224901;28;20055;-73
2022/01/02 22:43:12;;;;;;;0.90;0.80;;;;;;;;;;10230151;28;20046;-70
2022/01/02 22:48:15;;;;;;;5.18;1.77;;;;;;;;;;10219726;28;20035;-73
2022/01/02 22:53:20;;;;;;;1.08;0.88;;;;;;;;;;10221322;28;20054;-73
2022/01/02 22:58:25;;;;;;;2.83;1.80;;;;;;;;;;10223908;29;20130;-71
2022/01/02 23:03:30;;;;;;;1.90;0.60;;;;;;;;;;10222389;28;20276;-74
2022/01/02 23:08:34;;;;;;;1.85;1.00;;;;;;;;;;10218465;29;20093;-71
2022/01/02 23:13:41;;;;;;;3.00;1.33;;;;;;;;;;10227726;29;20130;-73
2022/01/02 23:18:46;;;;;;;2.35;1.13;;;;;;;;;;10230494;28;20047;-72
2022/01/02 23:23:49;;;;;;;1.70;1.10;;;;;;;;;;10221190;28;20998;-73
2022/01/02 23:28:54;;;;;;;1.83;1.10;;;;;;;;;;10228697;28;20039;-73
2022/01/02 23:33:57;;;;;;;1.45;0.55;;;;;;;;;;10222018;28;20039;-75
2022/01/02 23:39:01;;;;;;;3.53;1.80;;;;;;;;;;10222218;28;20051;-71
2022/01/02 23:44:06;;;;;;;1.90;1.20;;;;;;;;;;10227117;29;20050;-72
2022/01/02 23:49:11;;;;;;;1.80;0.85;;;;;;;;;;10227382;28;20311;-72
2022/01/02 23:54:14;;;;;;;1.55;0.68;;;;;;;;;;10220117;28;20503;-70
2022/01/02 23:59:19;;;;;;;1.88;0.38;;;;;;;;;;10231318;29;20062;-71
